Time;durP1;ratioP1;P1;durP2;ratioP2;P2;SDS_P1;SDS_P2;PMS_P1;PMS_P2;Temp;Humidity;BMP_temperature;BMP_pressure;BME280_temperature;BME280_humidity;BME280_pressure;Samples;Min_cycle;Max_cycle;Signal;HPM_P1;HPM_P2
2021/07/23 00:00:52;;;;;;;;;;;25.70;50.10;;;;;;5111267;28;20462;-72
2021/07/23 00:03:19;;;;;;;;;;;25.70;50.20;;;;;;5113357;28;20002;-72
2021/07/23 00:05:45;;;;;;;;;;;25.70;50.20;;;;;;5112670;28;19931;-72
2021/07/23 00:08:11;;;;;;;;;;;25.70;50.20;;;;;;5102680;28;19962;-72
2021/07/23 00:10:37;;;;;;;;;;;25.70;50.10;;;;;;5108276;28;20394;-72
2021/07/23 00:13:03;;;;;;;;;;;25.60;50.00;;;;;;5112566;28;19931;-73
2021/07/23 00:15:30;;;;;;;;;;;25.60;50.00;;;;;;5112973;28;20435;-73
2021/07/23 00:17:56;;;;;;;;;;;25.50;50.10;;;;;;5098691;28;19923;-73
2021/07/23 00:20:22;;;;;;;;;;;25.50;50.20;;;;;;5112512;28;20386;-72
2021/07/23 00:22:48;;;;;;;;;;;25.50;50.30;;;;;;5112690;28;20417;-73
2021/07/23 00:25:14;;;;;;;;;;;25.50;50.40;;;;;;5112363;28;19926;-72
2021/07/23 00:27:40;;;;;;;;;;;25.50;50.40;;;;;;5111922;28;20488;-72
2021/07/23 00:30:07;;;;;;;;;;;25.50;50.40;;;;;;5112650;28;19997;-72
2021/07/23 00:32:34;;;;;;;;;;;25.50;50.30;;;;;;5112569;28;19924;-72
2021/07/23 00:35:00;;;;;;;;;;;25.50;50.30;;;;;;5112725;28;20014;-72
2021/07/23 00:37:26;;;;;;;;;;;25.40;50.30;;;;;;5112525;28;19928;-72
2021/07/23 00:39:52;;;;;;;;;;;25.40;50.40;;;;;;5112619;28;19924;-72
2021/07/23 00:42:19;;;;;;;;;;;25.40;50.40;;;;;;5112251;28;19977;-72
2021/07/23 00:44:45;;;;;;;;;;;25.40;50.50;;;;;;5112709;28;19932;-72
2021/07/23 00:47:11;;;;;;;;;;;25.40;50.40;;;;;;5112679;28;19998;-72
2021/07/23 00:49:37;;;;;;;;;;;25.30;50.50;;;;;;5097032;28;20042;-72
2021/07/23 00:52:04;;;;;;;;;;;25.30;50.50;;;;;;5100488;28;20299;-72
2021/07/23 00:54:30;;;;;;;;;;;25.30;50.60;;;;;;5116548;28;19989;-72
2021/07/23 00:56:56;;;;;;;;;;;25.30;50.70;;;;;;5115085;28;20404;-72
2021/07/23 00:59:23;;;;;;;;;;;25.20;50.70;;;;;;5103718;28;19954;-72
2021/07/23 01:01:49;;;;;;;;;;;25.30;50.80;;;;;;5116986;28;20344;-72
2021/07/23 01:04:16;;;;;;;;;;;25.20;50.80;;;;;;5101896;28;20340;-72
2021/07/23 01:06:43;;;;;;;;;;;25.20;50.90;;;;;;5116621;28;19928;-72
2021/07/23 01:09:10;;;;;;;;;;;25.20;51.00;;;;;;5116355;28;19924;-72
2021/07/23 01:11:38;;;;;;;;;;;25.20;51.10;;;;;;5116535;28;19992;-72
2021/07/23 01:14:04;;;;;;;;;;;25.20;51.20;;;;;;5116392;28;19923;-72
2021/07/23 01:16:31;;;;;;;;;;;25.30;51.30;;;;;;5116519;28;20390;-72
2021/07/23 01:18:57;;;;;;;;;;;25.30;51.20;;;;;;5101998;28;19977;-72
2021/07/23 01:21:23;;;;;;;;;;;25.20;51.00;;;;;;5116355;28;20446;-72
2021/07/23 01:23:50;;;;;;;;;;;25.20;51.10;;;;;;5116116;28;20143;-72
2021/07/23 01:26:16;;;;;;;;;;;25.20;51.10;;;;;;5116160;28;20387;-72
2021/07/23 01:28:46;;;;;;;;;;;25.10;51.10;;;;;;5115913;28;19924;-72
2021/07/23 01:31:13;;;;;;;;;;;25.10;51.20;;;;;;5115880;28;19927;-72
2021/07/23 01:33:39;;;;;;;;;;;25.10;51.30;;;;;;5115953;28;20057;-72
2021/07/23 01:36:05;;;;;;;;;;;25.00;51.40;;;;;;5115796;28;19930;-72
2021/07/23 01:38:32;;;;;;;;;;;25.00;51.40;;;;;;5115867;28;19947;-72
2021/07/23 01:40:58;;;;;;;;;;;25.00;52.50;;;;;;5103349;28;20394;-72
2021/07/23 01:43:24;;;;;;;;;;;24.90;51.60;;;;;;5099262;28;19931;-72
2021/07/23 01:45:53;;;;;;;;;;;24.90;51.70;;;;;;5115822;28;20414;-72
2021/07/23 01:48:20;;;;;;;;;;;24.90;51.70;;;;;;5115630;28;20464;-72
2021/07/23 01:50:46;;;;;;;;;;;24.80;51.90;;;;;;5115638;28;19931;-72
2021/07/23 01:53:12;;;;;;;;;;;24.80;51.90;;;;;;5115602;28;20411;-72
2021/07/23 01:55:42;;;;;;;;;;;24.80;52.00;;;;;;5115003;28;19928;-72
2021/07/23 01:58:11;;;;;;;;;;;24.80;52.10;;;;;;5115621;28;19923;-72
2021/07/23 02:00:37;;;;;;;;;;;24.70;52.10;;;;;;5115253;28;19923;-72
2021/07/23 02:03:03;;;;;;;;;;;24.70;52.20;;;;;;5114957;28;19958;-72
2021/07/23 02:05:30;;;;;;;;;;;24.70;52.20;;;;;;5114618;28;20014;-72
2021/07/23 02:07:56;;;;;;;;;;;24.70;52.30;;;;;;5115572;28;19997;-72
2021/07/23 02:10:22;;;;;;;;;;;24.70;52.50;;;;;;5115202;28;19934;-72
2021/07/23 02:12:48;;;;;;;;;;;24.70;52.50;;;;;;5115132;28;20011;-72
2021/07/23 02:15:14;;;;;;;;;;;24.70;52.50;;;;;;5115467;28;19927;-72
2021/07/23 02:17:40;;;;;;;;;;;24.60;52.30;;;;;;5114467;28;19962;-72
2021/07/23 02:20:07;;;;;;;;;;;24.60;52.40;;;;;;5115154;28;20045;-72
2021/07/23 02:22:35;;;;;;;;;;;24.50;52.30;;;;;;5115228;28;19924;-72
2021/07/23 02:25:01;;;;;;;;;;;24.50;52.30;;;;;;5115049;28;20589;-72
2021/07/23 02:27:32;;;;;;;;;;;24.50;52.20;;;;;;5113926;27;20010;-72
2021/07/23 02:29:58;;;;;;;;;;;24.50;52.30;;;;;;5126482;27;19931;-72
2021/07/23 02:32:24;;;;;;;;;;;24.50;52.20;;;;;;5121641;27;19948;-72
2021/07/23 02:34:50;;;;;;;;;;;24.50;52.30;;;;;;5114555;28;20387;-73
2021/07/23 02:37:17;;;;;;;;;;;24.50;52.20;;;;;;5128672;27;19992;-72
2021/07/23 02:39:43;;;;;;;;;;;24.50;52.20;;;;;;5114634;28;19976;-72
2021/07/23 02:42:09;;;;;;;;;;;24.50;52.20;;;;;;5114871;28;19931;-72
2021/07/23 02:44:35;;;;;;;;;;;24.40;52.10;;;;;;5114774;28;19967;-72
2021/07/23 02:47:01;;;;;;;;;;;24.40;52.20;;;;;;5114690;28;19985;-72
2021/07/23 02:49:27;;;;;;;;;;;24.40;52.30;;;;;;5114183;28;20405;-72
2021/07/23 02:51:53;;;;;;;;;;;24.40;52.20;;;;;;5112996;28;19931;-72
2021/07/23 02:54:19;;;;;;;;;;;24.30;52.10;;;;;;5113971;28;20454;-72
2021/07/23 02:56:45;;;;;;;;;;;24.30;52.20;;;;;;5120006;27;19969;-72
2021/07/23 02:59:12;;;;;;;;;;;24.30;52.10;;;;;;5135090;27;20018;-72
2021/07/23 03:01:38;;;;;;;;;;;24.30;52.20;;;;;;5134370;27;20052;-71
2021/07/23 03:04:04;;;;;;;;;;;24.30;52.10;;;;;;5125331;27;20458;-72
2021/07/23 03:06:30;;;;;;;;;;;24.30;52.10;;;;;;5114176;28;20442;-72
2021/07/23 03:08:56;;;;;;;;;;;24.40;52.20;;;;;;5122138;27;19928;-72
2021/07/23 03:11:22;;;;;;;;;;;24.30;52.00;;;;;;5134444;27;20014;-72
2021/07/23 03:13:49;;;;;;;;;;;24.30;52.20;;;;;;5134467;27;20072;-72
2021/07/23 03:16:15;;;;;;;;;;;24.30;52.20;;;;;;5134454;27;19971;-72
2021/07/23 03:18:42;;;;;;;;;;;24.30;52.30;;;;;;5130170;27;20321;-72
2021/07/23 03:21:09;;;;;;;;;;;24.30;52.30;;;;;;5124145;27;20121;-72
2021/07/23 03:23:35;;;;;;;;;;;24.30;52.30;;;;;;5134376;27;19930;-72
2021/07/23 03:26:05;;;;;;;;;;;24.30;52.40;;;;;;5134570;27;20032;-72
2021/07/23 03:28:31;;;;;;;;;;;24.30;52.30;;;;;;5133870;27;19923;-72
2021/07/23 03:30:57;;;;;;;;;;;24.30;52.30;;;;;;5113379;28;19923;-72
2021/07/23 03:33:23;;;;;;;;;;;24.30;52.30;;;;;;5126818;27;19927;-72
2021/07/23 03:35:49;;;;;;;;;;;24.30;52.40;;;;;;5133923;27;19923;-72
2021/07/23 03:38:15;;;;;;;;;;;24.30;52.50;;;;;;5123794;27;20311;-72
2021/07/23 03:40:41;;;;;;;;;;;24.30;52.60;;;;;;5113041;28;20014;-72
2021/07/23 03:43:07;;;;;;;;;;;24.20;52.60;;;;;;5121410;27;20303;-72
2021/07/23 03:45:34;;;;;;;;;;;24.20;52.70;;;;;;5133957;27;20382;-71
2021/07/23 03:48:00;;;;;;;;;;;24.10;52.80;;;;;;5105341;27;19938;-72
2021/07/23 03:50:26;;;;;;;;;;;24.10;52.80;;;;;;5133786;27;20059;-71
2021/07/23 03:52:52;;;;;;;;;;;24.10;52.90;;;;;;5133767;27;19923;-74
2021/07/23 03:55:18;;;;;;;;;;;24.00;52.90;;;;;;5134149;27;20417;-72
2021/07/23 03:57:44;;;;;;;;;;;24.00;53.00;;;;;;5119097;27;19927;-72
2021/07/23 04:00:11;;;;;;;;;;;24.00;53.10;;;;;;5133903;27;20015;-71
2021/07/23 04:02:37;;;;;;;;;;;24.00;53.20;;;;;;5133601;27;19923;-71
2021/07/23 04:05:04;;;;;;;;;;;24.00;53.20;;;;;;5133605;27;19939;-72
2021/07/23 04:07:33;;;;;;;;;;;24.00;53.20;;;;;;5133782;27;20148;-71
2021/07/23 04:10:01;;;;;;;;;;;23.90;53.30;;;;;;5133585;27;20010;-71
2021/07/23 04:12:27;;;;;;;;;;;23.90;53.30;;;;;;5127331;27;20317;-72
2021/07/23 04:14:53;;;;;;;;;;;23.90;53.40;;;;;;5133058;27;20011;-72
2021/07/23 04:17:19;;;;;;;;;;;23.90;53.50;;;;;;5133434;27;20026;-71
2021/07/23 04:19:45;;;;;;;;;;;23.90;53.40;;;;;;5118955;27;19924;-71
2021/07/23 04:22:11;;;;;;;;;;;23.90;53.60;;;;;;5133481;27;19923;-73
2021/07/23 04:24:38;;;;;;;;;;;23.80;53.50;;;;;;5133453;27;19975;-72
2021/07/23 04:27:04;;;;;;;;;;;23.80;53.70;;;;;;5126921;27;20038;-71
2021/07/23 04:29:30;;;;;;;;;;;23.80;53.70;;;;;;5124372;27;20002;-72
2021/07/23 04:31:56;;;;;;;;;;;23.80;53.80;;;;;;5124295;27;19973;-72
2021/07/23 04:34:22;;;;;;;;;;;23.80;53.70;;;;;;5133354;27;19978;-71
2021/07/23 04:36:48;;;;;;;;;;;23.80;53.70;;;;;;5132960;27;20064;-71
2021/07/23 04:39:15;;;;;;;;;;;23.80;53.80;;;;;;5118673;27;20439;-72
2021/07/23 04:41:41;;;;;;;;;;;23.70;53.80;;;;;;5124497;28;20298;-71
2021/07/23 04:44:07;;;;;;;;;;;23.70;53.80;;;;;;5128822;28;19923;-71
2021/07/23 04:46:33;;;;;;;;;;;23.70;53.80;;;;;;5132923;28;20060;-71
2021/07/23 04:48:59;;;;;;;;;;;23.70;53.90;;;;;;5132766;28;19923;-71
2021/07/23 04:51:27;;;;;;;;;;;23.70;54.10;;;;;;5132973;28;19945;-71
2021/07/23 04:53:53;;;;;;;;;;;23.60;54.00;;;;;;5133248;28;19935;-71
2021/07/23 04:56:19;;;;;;;;;;;23.60;54.00;;;;;;5132950;27;20080;-71
2021/07/23 04:58:45;;;;;;;;;;;23.70;54.10;;;;;;5121837;28;20338;-72
2021/07/23 05:01:11;;;;;;;;;;;23.60;53.90;;;;;;5129429;28;19923;-71
2021/07/23 05:03:38;;;;;;;;;;;23.70;54.00;;;;;;5132845;28;20006;-71
2021/07/23 05:06:08;;;;;;;;;;;23.70;53.90;;;;;;5127360;28;20030;-71
2021/07/23 05:08:34;;;;;;;;;;;23.70;53.80;;;;;;5125228;28;20064;-71
2021/07/23 05:11:01;;;;;;;;;;;23.70;53.90;;;;;;5132852;27;19927;-72
2021/07/23 05:13:30;;;;;;;;;;;23.70;53.90;;;;;;5132505;28;20014;-72
2021/07/23 05:15:57;;;;;;;;;;;23.70;53.80;;;;;;5132884;27;20011;-71
2021/07/23 05:18:24;;;;;;;;;;;23.70;53.90;;;;;;5132842;27;20036;-71
2021/07/23 05:20:50;;;;;;;;;;;23.80;53.70;;;;;;5132687;28;20018;-72
2021/07/23 05:23:16;;;;;;;;;;;23.80;53.60;;;;;;5132730;28;20012;-71
2021/07/23 05:25:42;;;;;;;;;;;23.60;53.70;;;;;;5131974;28;20404;-71
2021/07/23 05:28:08;;;;;;;;;;;23.60;54.00;;;;;;5122940;28;20406;-73
2021/07/23 05:30:34;;;;;;;;;;;23.50;54.20;;;;;;5127849;28;19964;-71
2021/07/23 05:33:00;;;;;;;;;;;23.40;54.50;;;;;;5129973;28;20014;-71
2021/07/23 05:35:27;;;;;;;;;;;23.40;54.60;;;;;;5125813;28;19924;-71
2021/07/23 05:37:53;;;;;;;;;;;23.30;54.90;;;;;;5125852;28;19924;-71
2021/07/23 05:40:19;;;;;;;;;;;23.10;55.20;;;;;;5128452;27;20240;-71
2021/07/23 05:42:45;;;;;;;;;;;23.00;55.60;;;;;;5129219;27;19930;-72
2021/07/23 05:45:11;;;;;;;;;;;23.00;56.70;;;;;;5118226;27;19983;-71
2021/07/23 05:47:37;;;;;;;;;;;22.90;56.00;;;;;;5131643;27;19943;-72
2021/07/23 05:50:04;;;;;;;;;;;23.00;56.00;;;;;;5135607;27;20053;-73
2021/07/23 05:52:30;;;;;;;;;;;22.90;56.00;;;;;;5135646;27;20006;-73
2021/07/23 05:54:56;;;;;;;;;;;23.00;56.20;;;;;;5129172;27;19928;-71
2021/07/23 05:57:22;;;;;;;;;;;22.90;56.10;;;;;;5115738;28;20006;-71
2021/07/23 05:59:48;;;;;;;;;;;22.90;56.30;;;;;;5118970;27;19961;-71
2021/07/23 06:02:14;;;;;;;;;;;22.90;56.30;;;;;;5134851;27;20434;-71
2021/07/23 06:04:41;;;;;;;;;;;22.90;56.30;;;;;;5130159;27;20006;-71
2021/07/23 06:07:08;;;;;;;;;;;22.90;56.40;;;;;;5122261;27;19932;-72
2021/07/23 06:09:34;;;;;;;;;;;22.90;56.60;;;;;;5110614;28;20018;-73
2021/07/23 06:12:00;;;;;;;;;;;22.90;56.60;;;;;;5110316;28;19927;-71
2021/07/23 06:14:26;;;;;;;;;;;22.90;56.70;;;;;;5111818;28;20584;-71
2021/07/23 06:16:55;;;;;;;;;;;22.90;56.70;;;;;;5110761;28;19928;-72
2021/07/23 06:19:22;;;;;;;;;;;23.00;56.60;;;;;;5112632;27;19935;-73
2021/07/23 06:21:48;;;;;;;;;;;23.00;56.50;;;;;;5111899;27;19963;-72
2021/07/23 06:24:14;;;;;;;;;;;23.10;56.20;;;;;;5117279;27;19931;-72
2021/07/23 06:26:40;;;;;;;;;;;23.10;56.20;;;;;;5111164;28;19928;-75
2021/07/23 06:29:06;;;;;;;;;;;23.20;55.90;;;;;;5110661;28;20065;-73
2021/07/23 06:31:34;;;;;;;;;;;23.30;55.70;;;;;;5111214;28;19928;-73
2021/07/23 06:34:01;;;;;;;;;;;23.30;55.50;;;;;;5111260;28;20018;-74
2021/07/23 06:36:27;;;;;;;;;;;23.30;55.50;;;;;;5111487;27;19928;-74
2021/07/23 06:38:53;;;;;;;;;;;23.30;55.50;;;;;;5110625;28;19928;-73
2021/07/23 06:41:19;;;;;;;;;;;23.30;55.40;;;;;;5110943;28;20406;-73
2021/07/23 06:43:45;;;;;;;;;;;23.40;55.30;;;;;;5108855;28;20042;-73
2021/07/23 06:46:12;;;;;;;;;;;23.50;55.20;;;;;;5110023;28;19928;-74
2021/07/23 06:48:38;;;;;;;;;;;23.50;55.00;;;;;;5120708;27;20045;-73
2021/07/23 06:51:04;;;;;;;;;;;23.50;55.00;;;;;;5115137;27;20000;-73
2021/07/23 06:53:30;;;;;;;;;;;23.50;55.00;;;;;;5128090;27;19927;-73
2021/07/23 06:55:57;;;;;;;;;;;23.50;54.90;;;;;;5127552;27;19924;-72
2021/07/23 06:58:23;;;;;;;;;;;23.60;55.00;;;;;;5118014;27;19928;-72
2021/07/23 07:00:49;;;;;;;;;;;23.80;54.80;;;;;;5121236;27;20294;-72
2021/07/23 07:03:15;;;;;;;;;;;24.00;54.20;;;;;;5118523;27;20310;-74
2021/07/23 07:05:41;;;;;;;;;;;24.00;53.60;;;;;;5110950;28;19974;-72
2021/07/23 07:08:08;;;;;;;;;;;24.10;53.70;;;;;;5109641;28;19928;-79
2021/07/23 07:10:34;;;;;;;;;;;24.00;53.50;;;;;;5109951;28;19950;-77
